createdAt,value
2019-02-14T00:01:14.197Z,4.90
2019-02-14T00:03:41.783Z,4.80
2019-02-14T00:06:09.252Z,4.70
2019-02-14T00:08:36.734Z,4.60
2019-02-14T00:11:04.525Z,4.60
2019-02-14T00:13:31.939Z,4.50
2019-02-14T00:16:02.401Z,4.50
2019-02-14T00:18:29.800Z,4.60
2019-02-14T00:20:57.321Z,4.60
2019-02-14T00:23:25.398Z,4.70
2019-02-14T00:25:52.815Z,4.70
2019-02-14T00:28:20.553Z,4.70
2019-02-14T00:30:47.969Z,4.60
2019-02-14T00:33:15.417Z,4.60
2019-02-14T00:35:42.994Z,4.60
2019-02-14T00:38:11.016Z,4.50
2019-02-14T00:40:38.844Z,4.60
2019-02-14T00:43:06.644Z,4.50
2019-02-14T00:45:34.788Z,4.40
2019-02-14T00:48:02.393Z,4.30
2019-02-14T00:50:29.899Z,4.20
2019-02-14T00:52:57.281Z,4.10
2019-02-14T00:55:25.094Z,4.20
2019-02-14T00:57:52.474Z,4.10
2019-02-14T01:00:19.964Z,4.00
2019-02-14T01:02:47.737Z,3.90
2019-02-14T01:05:16.488Z,3.80
2019-02-14T01:07:48.176Z,3.80
2019-02-14T01:10:15.699Z,3.70
2019-02-14T01:12:43.230Z,3.70
2019-02-14T01:15:10.803Z,3.70
2019-02-14T01:17:38.592Z,3.70
2019-02-14T01:20:06.232Z,3.60
2019-02-14T01:22:34.714Z,3.60
2019-02-14T01:25:02.133Z,3.60
2019-02-14T01:27:29.664Z,3.50
2019-02-14T01:29:57.463Z,3.60
2019-02-14T01:32:25.425Z,3.60
2019-02-14T01:34:53.550Z,3.60
2019-02-14T01:37:21.329Z,3.50
2019-02-14T01:39:48.875Z,3.50
2019-02-14T01:42:16.401Z,3.40
2019-02-14T01:44:44.749Z,3.30
2019-02-14T01:47:12.171Z,3.30
2019-02-14T01:49:39.594Z,3.20
2019-02-14T01:52:07.110Z,3.00
2019-02-14T01:54:34.495Z,2.80
2019-02-14T01:57:02.036Z,2.70
2019-02-14T01:59:29.629Z,2.60
2019-02-14T02:01:57.489Z,2.50
2019-02-14T02:04:25.112Z,2.40
2019-02-14T02:06:52.656Z,2.40
2019-02-14T02:09:20.457Z,2.40
2019-02-14T02:11:48.179Z,2.40
2019-02-14T02:14:16.284Z,2.30
2019-02-14T02:16:43.845Z,2.30
2019-02-14T02:19:11.656Z,2.20
2019-02-14T02:21:39.688Z,2.20
2019-02-14T02:24:07.301Z,2.20
2019-02-14T02:26:35.357Z,2.20
2019-02-14T02:29:03.442Z,2.20
2019-02-14T02:31:31.189Z,2.20
2019-02-14T02:33:58.756Z,2.20
2019-02-14T02:36:26.544Z,2.10
2019-02-14T02:38:54.289Z,2.20
2019-02-14T02:41:22.333Z,2.20
2019-02-14T02:43:50.085Z,2.30
2019-02-14T02:46:17.844Z,2.30
2019-02-14T02:48:45.337Z,2.30
2019-02-14T02:51:12.740Z,2.40
2019-02-14T02:53:40.335Z,2.20
2019-02-14T02:56:07.857Z,2.30
2019-02-14T02:58:35.616Z,2.20
2019-02-14T03:01:03.290Z,2.10
2019-02-14T03:03:31.001Z,2.10
2019-02-14T03:05:58.861Z,2.10
2019-02-14T03:08:26.644Z,2.20
2019-02-14T03:16:17.622Z,2.20
2019-02-14T03:18:45.111Z,2.10
2019-02-14T03:21:12.625Z,2.20
2019-02-14T03:23:39.977Z,2.30
2019-02-14T03:26:07.656Z,2.40
2019-02-14T03:28:35.330Z,2.60
2019-02-14T03:31:02.745Z,2.70
2019-02-14T03:33:30.197Z,2.70
2019-02-14T03:35:57.884Z,2.80
2019-02-14T03:38:25.346Z,2.90
2019-02-14T03:40:53.268Z,3.10
2019-02-14T03:43:20.736Z,3.10
2019-02-14T03:45:48.247Z,3.10
2019-02-14T03:48:15.918Z,2.90
2019-02-14T03:50:43.334Z,2.80
2019-02-14T03:53:10.996Z,2.60
2019-02-14T03:55:38.441Z,2.40
2019-02-14T03:58:05.895Z,2.30
2019-02-14T04:00:33.683Z,2.20
2019-02-14T04:03:01.049Z,2.10
2019-02-14T04:05:28.580Z,2.00
2019-02-14T04:07:55.927Z,2.00
2019-02-14T04:10:23.463Z,1.90
2019-02-14T04:12:51.077Z,1.80
2019-02-14T04:15:18.462Z,1.80
2019-02-14T04:17:46.263Z,1.70
2019-02-14T04:20:13.765Z,1.80
2019-02-14T04:22:41.156Z,1.90
2019-02-14T04:25:08.688Z,1.90
2019-02-14T04:27:36.180Z,1.90
2019-02-14T04:30:04.523Z,1.90
2019-02-14T04:32:32.743Z,1.90
2019-02-14T04:35:00.224Z,1.90
2019-02-14T04:37:27.729Z,2.10
2019-02-14T04:39:55.189Z,2.00
2019-02-14T04:42:22.702Z,2.10
2019-02-14T04:44:50.083Z,2.00
2019-02-14T04:47:17.619Z,2.20
2019-02-14T04:49:45.241Z,2.20
2019-02-14T04:52:12.892Z,2.30
2019-02-14T04:54:40.268Z,2.40
2019-02-14T04:57:07.774Z,2.40
2019-02-14T04:59:35.263Z,2.40
2019-02-14T05:02:02.761Z,2.70
2019-02-14T05:04:30.235Z,2.50
2019-02-14T05:06:57.731Z,2.40
2019-02-14T05:09:25.210Z,2.30
2019-02-14T05:11:52.837Z,2.10
2019-02-14T05:14:20.503Z,2.10
2019-02-14T05:16:48.043Z,2.20
2019-02-14T05:19:15.583Z,2.10
2019-02-14T05:21:43.856Z,2.00
2019-02-14T05:24:11.526Z,1.90
2019-02-14T05:26:39.159Z,1.70
2019-02-14T05:29:07.079Z,1.70
2019-02-14T05:31:34.649Z,1.70
2019-02-14T05:34:02.295Z,1.80
2019-02-14T05:36:29.814Z,1.90
2019-02-14T05:38:57.301Z,1.80
2019-02-14T05:41:24.891Z,1.80
2019-02-14T05:43:52.463Z,1.60
2019-02-14T05:46:20.108Z,1.60
2019-02-14T05:48:47.717Z,1.60
2019-02-14T05:51:15.511Z,1.30
2019-02-14T05:53:43.148Z,1.30
2019-02-14T05:56:10.688Z,1.30
2019-02-14T05:58:38.260Z,1.30
2019-02-14T06:01:05.799Z,1.40
2019-02-14T06:03:33.398Z,1.50
2019-02-14T06:06:01.281Z,1.60
2019-02-14T06:08:28.860Z,1.60
2019-02-14T06:10:56.439Z,1.50
2019-02-14T06:13:24.429Z,1.30
2019-02-14T06:15:51.884Z,1.30
2019-02-14T06:18:19.454Z,1.30
2019-02-14T06:20:47.142Z,1.30
2019-02-14T06:23:14.759Z,1.40
2019-02-14T06:25:42.334Z,1.60
2019-02-14T06:28:09.932Z,1.80
2019-02-14T06:30:37.530Z,2.00
2019-02-14T06:33:05.224Z,2.20
2019-02-14T06:35:32.841Z,2.10
2019-02-14T06:38:00.541Z,2.10
2019-02-14T06:40:28.103Z,2.40
2019-02-14T06:42:56.429Z,2.40
2019-02-14T06:45:23.967Z,2.50
2019-02-14T06:47:51.665Z,2.30
2019-02-14T06:50:19.499Z,2.20
2019-02-14T06:52:51.221Z,2.20
2019-02-14T06:55:19.088Z,2.30
2019-02-14T06:57:46.719Z,2.50
2019-02-14T07:00:14.543Z,2.60
2019-02-14T07:02:42.303Z,2.70
2019-02-14T07:05:10.012Z,2.70
2019-02-14T07:07:37.865Z,2.70
2019-02-14T07:10:06.343Z,2.40
2019-02-14T07:12:33.925Z,2.30
2019-02-14T07:15:01.472Z,2.40
2019-02-14T07:17:29.063Z,2.60
2019-02-14T07:20:00.300Z,2.60
2019-02-14T07:22:27.818Z,2.60
2019-02-14T07:24:55.415Z,2.60
2019-02-14T07:27:23.081Z,2.50
2019-02-14T07:29:50.638Z,2.50
2019-02-14T07:32:18.607Z,2.50
2019-02-14T07:34:46.532Z,2.50
2019-02-14T07:37:14.185Z,2.60
2019-02-14T07:39:42.220Z,2.70
2019-02-14T07:42:09.836Z,2.90
2019-02-14T07:44:37.755Z,3.00
2019-02-14T07:47:05.278Z,3.20
2019-02-14T07:49:33.760Z,3.30
2019-02-14T07:52:01.384Z,3.30
2019-02-14T07:54:29.008Z,3.20
2019-02-14T07:56:56.749Z,2.80
2019-02-14T07:59:24.968Z,2.70
2019-02-14T08:01:53.056Z,2.60
2019-02-14T08:04:21.325Z,2.70
2019-02-14T08:06:49.142Z,3.10
2019-02-14T08:09:16.924Z,3.40
2019-02-14T08:11:44.719Z,3.40
2019-02-14T08:14:12.500Z,3.50
2019-02-14T08:16:40.169Z,3.40
2019-02-14T08:19:07.995Z,3.40
2019-02-14T08:21:36.179Z,3.60
2019-02-14T08:24:04.052Z,3.70
2019-02-14T08:26:34.663Z,3.80
2019-02-14T08:29:06.389Z,4.10
2019-02-14T08:31:34.861Z,4.50
2019-02-14T08:34:03.061Z,4.40
2019-02-14T08:36:30.943Z,4.50
2019-02-14T08:39:01.068Z,4.40
2019-02-14T08:41:28.958Z,4.40
2019-02-14T08:43:56.601Z,4.30
2019-02-14T08:46:24.298Z,4.50
2019-02-14T08:48:53.226Z,4.70
2019-02-14T08:51:37.310Z,4.80
2019-02-14T08:54:05.500Z,5.00
2019-02-14T08:56:33.156Z,5.30
2019-02-14T08:59:04.212Z,5.30
2019-02-14T09:01:39.717Z,5.10
2019-02-14T09:04:12.631Z,5.10
2019-02-14T09:06:54.307Z,5.10
2019-02-14T09:09:22.434Z,5.10
2019-02-14T09:11:50.128Z,5.30
2019-02-14T09:14:18.069Z,5.30
2019-02-14T09:16:45.945Z,5.50
2019-02-14T09:19:13.836Z,5.70
2019-02-14T09:21:45.906Z,5.90
2019-02-14T09:24:13.397Z,6.10
2019-02-14T09:26:41.145Z,6.30
2019-02-14T09:29:08.606Z,6.30
2019-02-14T09:31:36.036Z,6.40
2019-02-14T09:34:03.477Z,6.60
2019-02-14T09:36:31.330Z,6.80
2019-02-14T09:38:58.742Z,6.90
2019-02-14T09:41:26.136Z,7.20
2019-02-14T09:43:53.622Z,7.20
2019-02-14T09:46:24.071Z,7.30
2019-02-14T09:48:54.385Z,7.20
2019-02-14T09:51:21.858Z,7.30
2019-02-14T09:53:49.206Z,7.30
2019-02-14T09:56:16.942Z,7.20
2019-02-14T09:58:58.881Z,7.50
2019-02-14T10:01:26.376Z,7.40
2019-02-14T10:03:53.892Z,7.50
2019-02-14T10:06:21.475Z,7.40
2019-02-14T10:09:07.018Z,7.20
2019-02-14T10:11:34.732Z,7.20
2019-02-14T10:14:03.710Z,7.30
2019-02-14T10:16:31.580Z,7.50
2019-02-14T10:18:59.032Z,7.70
2019-02-14T10:21:26.433Z,8.00
2019-02-14T10:23:53.924Z,8.50
2019-02-14T10:26:21.442Z,8.70
2019-02-14T10:28:49.132Z,9.00
2019-02-14T10:31:16.513Z,9.00
2019-02-14T10:33:43.880Z,9.10
2019-02-14T10:36:11.438Z,9.20
2019-02-14T10:38:39.268Z,9.30
2019-02-14T10:41:07.002Z,9.50
2019-02-14T10:43:34.660Z,9.50
2019-02-14T10:46:02.771Z,9.60
2019-02-14T10:48:30.268Z,9.40
2019-02-14T10:50:57.763Z,9.50
2019-02-14T10:53:25.457Z,9.60
2019-02-14T10:55:52.961Z,9.70
2019-02-14T10:58:20.286Z,9.70
2019-02-14T11:00:47.647Z,9.70
2019-02-14T11:03:15.619Z,9.80
2019-02-14T11:05:43.121Z,9.90
2019-02-14T11:08:10.476Z,10.00
2019-02-14T11:10:39.965Z,9.80
2019-02-14T11:13:07.722Z,10.10
2019-02-14T11:15:35.240Z,10.30
2019-02-14T11:18:03.119Z,10.60
2019-02-14T11:20:30.885Z,10.80
2019-02-14T11:22:58.597Z,11.10
2019-02-14T11:25:28.312Z,11.20
2019-02-14T11:27:56.107Z,11.00
2019-02-14T11:30:23.574Z,11.20
2019-02-14T11:32:51.107Z,11.20
2019-02-14T11:35:18.533Z,11.30
2019-02-14T11:37:46.070Z,11.40
2019-02-14T11:40:16.815Z,11.30
2019-02-14T11:42:44.481Z,11.30
2019-02-14T11:45:13.439Z,11.60
2019-02-14T11:47:40.970Z,11.70
2019-02-14T11:50:09.177Z,11.60
2019-02-14T11:52:36.554Z,11.70
2019-02-14T11:55:04.009Z,11.80
2019-02-14T11:57:31.355Z,12.00
2019-02-14T11:59:59.013Z,12.10
2019-02-14T12:02:26.375Z,12.20
2019-02-14T12:04:54.376Z,12.00
2019-02-14T12:07:21.734Z,12.10
2019-02-14T12:09:49.158Z,11.90
2019-02-14T12:12:16.561Z,12.20
2019-02-14T12:14:44.594Z,12.40
2019-02-14T12:17:12.369Z,12.50
2019-02-14T12:19:40.101Z,12.60
2019-02-14T12:22:07.585Z,12.80
2019-02-14T12:24:35.359Z,12.80
2019-02-14T12:27:02.878Z,12.70
2019-02-14T12:29:30.271Z,13.00
2019-02-14T12:31:57.743Z,13.00
2019-02-14T12:34:25.174Z,12.90
2019-02-14T12:36:52.681Z,13.00
2019-02-14T12:39:20.084Z,13.10
2019-02-14T12:41:47.847Z,13.40
2019-02-14T12:44:15.558Z,13.30
2019-02-14T12:46:43.232Z,13.30
2019-02-14T12:49:10.657Z,13.30
2019-02-14T12:51:38.442Z,13.30
2019-02-14T12:54:05.903Z,13.40
2019-02-14T12:56:33.376Z,13.30
2019-02-14T12:59:00.864Z,13.50
2019-02-14T13:01:28.469Z,13.80
2019-02-14T13:03:55.900Z,14.00
2019-02-14T13:06:23.396Z,14.00
2019-02-14T13:08:50.893Z,14.20
2019-02-14T13:11:18.397Z,14.30
2019-02-14T13:13:49.686Z,14.30
2019-02-14T13:16:15.125Z,14.30
2019-02-14T13:18:42.827Z,14.30
2019-02-14T13:21:10.441Z,14.10
2019-02-14T13:23:38.165Z,14.10
2019-02-14T13:26:05.608Z,14.20
2019-02-14T13:28:33.469Z,14.20
2019-02-14T13:31:00.877Z,14.00
2019-02-14T13:33:28.345Z,14.20
2019-02-14T13:35:56.076Z,14.00
2019-02-14T13:38:23.988Z,13.90
2019-02-14T13:40:51.391Z,13.80
2019-02-14T13:43:18.839Z,14.00
2019-02-14T13:45:46.301Z,13.90
2019-02-14T13:48:13.694Z,14.10
2019-02-14T13:50:41.341Z,14.10
2019-02-14T13:53:09.072Z,14.20
2019-02-14T13:55:36.433Z,14.30
2019-02-14T13:58:04.238Z,14.50
2019-02-14T14:00:31.979Z,14.40
2019-02-14T14:02:59.469Z,14.40
2019-02-14T14:05:27.068Z,14.60
2019-02-14T14:07:54.765Z,14.50
2019-02-14T14:10:22.142Z,14.70
2019-02-14T14:12:49.637Z,14.90
2019-02-14T14:15:17.104Z,14.90
2019-02-14T14:17:44.584Z,14.70
2019-02-14T14:20:11.972Z,14.20
2019-02-14T14:22:39.522Z,13.90
2019-02-14T14:25:06.959Z,13.70
2019-02-14T14:27:34.351Z,13.80
2019-02-14T14:30:01.820Z,13.80
2019-02-14T14:32:29.434Z,13.90
2019-02-14T14:34:56.863Z,14.10
2019-02-14T14:37:24.358Z,14.10
2019-02-14T14:39:51.997Z,14.20
2019-02-14T14:42:42.244Z,14.30
2019-02-14T14:45:12.138Z,14.40
2019-02-14T14:47:39.893Z,14.40
2019-02-14T14:50:07.532Z,14.50
2019-02-14T14:52:34.862Z,14.40
2019-02-14T14:55:02.466Z,14.30
2019-02-14T14:57:29.849Z,14.20
2019-02-14T14:59:57.189Z,14.10
2019-02-14T15:02:24.884Z,14.00
2019-02-14T15:04:52.294Z,14.00
2019-02-14T15:07:19.894Z,13.70
2019-02-14T15:09:47.212Z,13.80
2019-02-14T15:12:14.544Z,13.90
2019-02-14T15:14:42.635Z,13.90
2019-02-14T15:17:10.087Z,13.70
2019-02-14T15:19:37.378Z,13.80
2019-02-14T15:22:05.084Z,13.80
2019-02-14T15:24:32.396Z,13.60
2019-02-14T15:27:00.027Z,13.40
2019-02-14T15:29:27.341Z,13.30
2019-02-14T15:31:54.857Z,13.20
2019-02-14T15:34:22.271Z,13.20
2019-02-14T15:36:51.796Z,13.10
2019-02-14T15:39:19.214Z,13.10
2019-02-14T15:41:46.532Z,12.90
2019-02-14T15:44:14.538Z,12.80
2019-02-14T15:46:42.134Z,12.60
2019-02-14T15:49:09.620Z,12.50
2019-02-14T15:51:37.296Z,12.40
2019-02-14T15:54:04.617Z,12.30
2019-02-14T15:56:51.479Z,12.10
2019-02-14T15:59:20.941Z,12.00
2019-02-14T16:01:48.421Z,11.80
2019-02-14T16:04:16.092Z,11.60
2019-02-14T16:06:43.461Z,11.40
2019-02-14T16:09:12.185Z,11.30
2019-02-14T16:11:40.112Z,11.30
2019-02-14T16:14:07.797Z,11.20
2019-02-14T16:16:35.374Z,11.20
2019-02-14T16:19:02.715Z,10.80
2019-02-14T16:21:31.584Z,10.70
2019-02-14T16:23:59.027Z,10.50
2019-02-14T16:26:26.803Z,10.50
2019-02-14T16:28:54.125Z,10.40
2019-02-14T16:31:21.448Z,10.20
2019-02-14T16:33:48.782Z,10.20
2019-02-14T16:36:16.191Z,10.20
2019-02-14T16:38:43.918Z,10.10
2019-02-14T16:41:11.769Z,10.10
2019-02-14T16:43:39.110Z,10.10
2019-02-14T16:46:06.431Z,10.20
2019-02-14T16:48:34.583Z,10.10
2019-02-14T16:51:02.265Z,9.90
2019-02-14T16:53:29.614Z,9.70
2019-02-14T16:56:02.075Z,9.60
2019-02-14T16:58:26.471Z,9.50
2019-02-14T17:00:53.842Z,9.40
2019-02-14T17:03:21.200Z,9.30
2019-02-14T17:05:48.567Z,9.30
2019-02-14T17:08:15.904Z,9.30
2019-02-14T17:10:43.287Z,9.20
2019-02-14T17:13:11.147Z,9.10
2019-02-14T17:15:38.848Z,9.10
2019-02-14T17:18:06.173Z,8.90
2019-02-14T17:20:33.523Z,8.90
2019-02-14T17:23:00.840Z,8.80
2019-02-14T17:25:28.735Z,8.80
2019-02-14T17:27:56.070Z,8.70
2019-02-14T17:30:23.708Z,8.50
2019-02-14T17:32:51.146Z,8.30
2019-02-14T17:35:18.620Z,8.10
2019-02-14T17:37:46.018Z,8.10
2019-02-14T17:40:13.864Z,7.90
2019-02-14T17:42:41.336Z,7.70
2019-02-14T17:45:09.357Z,7.40
2019-02-14T17:47:37.008Z,7.30
2019-02-14T17:50:04.748Z,7.10
2019-02-14T17:52:32.160Z,7.00
2019-02-14T17:54:59.803Z,6.90
2019-02-14T17:57:27.606Z,6.70
2019-02-14T17:59:55.310Z,6.60
2019-02-14T18:05:06.724Z,6.50
2019-02-14T18:07:47.071Z,6.50
2019-02-14T18:10:19.397Z,6.50
2019-02-14T18:12:47.622Z,6.40
2019-02-14T18:15:19.108Z,6.50
2019-02-14T18:17:55.614Z,6.40
2019-02-14T18:20:24.740Z,6.30
2019-02-14T18:22:55.333Z,6.30
2019-02-14T18:25:22.864Z,6.30
2019-02-14T18:27:51.961Z,6.20
2019-02-14T18:30:27.510Z,6.20
2019-02-14T18:32:55.610Z,6.10
2019-02-14T18:35:23.207Z,6.10
2019-02-14T18:37:50.801Z,6.00
2019-02-14T18:40:18.702Z,6.00
2019-02-14T18:42:46.367Z,6.00
2019-02-14T18:45:14.000Z,5.90
2019-02-14T18:47:42.095Z,5.90
2019-02-14T18:50:10.174Z,5.70
2019-02-14T18:52:37.830Z,5.50
2019-02-14T18:55:06.221Z,5.40
2019-02-14T18:57:34.334Z,5.20
2019-02-14T19:00:02.019Z,5.10
2019-02-14T19:02:29.710Z,5.00
2019-02-14T19:04:58.041Z,5.10
2019-02-14T19:07:26.061Z,5.10
2019-02-14T19:09:54.093Z,5.20
2019-02-14T19:12:21.764Z,5.20
2019-02-14T19:14:49.516Z,5.20
2019-02-14T19:17:17.942Z,5.40
2019-02-14T19:19:45.984Z,5.40
2019-02-14T19:22:13.665Z,5.40
2019-02-14T19:24:41.613Z,5.50
2019-02-14T19:27:09.627Z,5.50
2019-02-14T19:29:37.633Z,5.40
2019-02-14T19:32:05.813Z,5.40
2019-02-14T19:34:33.858Z,5.40
2019-02-14T19:37:02.476Z,5.30
2019-02-14T19:39:31.445Z,5.20
2019-02-14T19:42:00.083Z,5.10
2019-02-14T19:44:28.133Z,4.90
2019-02-14T19:46:56.150Z,4.80
2019-02-14T19:49:24.280Z,4.70
2019-02-14T19:51:52.303Z,4.70
2019-02-14T19:54:20.370Z,4.80
2019-02-14T19:56:48.353Z,4.60
2019-02-14T19:59:16.822Z,4.50
2019-02-14T20:01:44.914Z,4.40
2019-02-14T20:04:12.549Z,4.40
2019-02-14T20:06:40.525Z,4.40
2019-02-14T20:09:08.643Z,4.10
2019-02-14T20:11:37.326Z,4.10
2019-02-14T20:14:05.546Z,3.90
2019-02-14T20:16:33.186Z,4.00
2019-02-14T20:19:00.868Z,4.00
2019-02-14T20:21:28.466Z,4.00
2019-02-14T20:23:56.129Z,4.00
2019-02-14T20:26:23.763Z,3.90
2019-02-14T20:28:51.883Z,3.80
2019-02-14T20:31:19.688Z,3.80
2019-02-14T20:33:47.791Z,3.80
2019-02-14T20:36:17.291Z,3.70
2019-02-14T20:38:45.001Z,3.70
2019-02-14T20:41:13.049Z,3.70
2019-02-14T20:43:40.796Z,3.60
2019-02-14T20:46:08.862Z,3.50
2019-02-14T20:48:36.547Z,3.40
2019-02-14T20:51:04.136Z,3.30
2019-02-14T20:53:31.834Z,3.30
2019-02-14T20:55:59.977Z,3.20
2019-02-14T20:58:27.653Z,3.10
2019-02-14T21:00:55.427Z,3.10
2019-02-14T21:03:23.103Z,3.00
2019-02-14T21:05:51.017Z,3.00
2019-02-14T21:08:19.100Z,3.10
2019-02-14T21:10:46.844Z,3.20
2019-02-14T21:13:15.189Z,3.30
2019-02-14T21:15:45.599Z,3.20
2019-02-14T21:18:13.275Z,3.30
2019-02-14T21:20:41.119Z,3.20
2019-02-14T21:23:08.808Z,3.20
2019-02-14T21:25:36.513Z,3.20
2019-02-14T21:28:04.115Z,3.10
2019-02-14T21:30:35.600Z,3.00
2019-02-14T21:33:01.853Z,2.90
2019-02-14T21:35:29.570Z,2.70
2019-02-14T21:37:57.305Z,2.80
2019-02-14T21:40:24.989Z,2.60
2019-02-14T21:42:52.606Z,2.60
2019-02-14T21:45:20.342Z,2.40
2019-02-14T21:47:48.396Z,2.40
2019-02-14T21:50:16.944Z,2.40
2019-02-14T21:52:44.619Z,2.40
2019-02-14T21:55:12.482Z,2.60
2019-02-14T21:57:40.635Z,2.80
2019-02-14T22:00:11.509Z,2.60
2019-02-14T22:02:39.223Z,2.50
2019-02-14T22:05:07.486Z,2.40
2019-02-14T22:07:35.505Z,2.40
2019-02-14T22:10:03.421Z,2.50
2019-02-14T22:12:40.046Z,2.50
2019-02-14T22:15:00.674Z,2.40
2019-02-14T22:17:28.450Z,2.30
2019-02-14T22:19:56.066Z,2.30
2019-02-14T22:22:23.662Z,2.30
2019-02-14T22:24:51.559Z,2.30
2019-02-14T22:27:19.287Z,2.30
2019-02-14T22:29:46.956Z,2.20
2019-02-14T22:32:14.516Z,2.20
2019-02-14T22:34:42.124Z,2.30
2019-02-14T22:37:09.742Z,2.30
2019-02-14T22:39:37.878Z,2.20
2019-02-14T22:42:05.503Z,2.30
2019-02-14T22:44:33.105Z,2.30
2019-02-14T22:47:00.759Z,2.20
2019-02-14T22:49:29.006Z,2.40
2019-02-14T22:51:56.903Z,2.20
2019-02-14T22:54:24.824Z,2.30
2019-02-14T22:56:52.714Z,2.40
2019-02-14T22:59:20.368Z,2.50
2019-02-14T23:01:48.199Z,2.60
2019-02-14T23:04:15.783Z,2.60
2019-02-14T23:06:44.106Z,2.40
2019-02-14T23:09:11.693Z,2.70
2019-02-14T23:11:40.009Z,2.70
2019-02-14T23:14:07.602Z,2.50
2019-02-14T23:16:35.869Z,2.20
2019-02-14T23:19:03.458Z,2.10
2019-02-14T23:21:31.103Z,2.00
2019-02-14T23:23:59.052Z,2.10
2019-02-14T23:26:26.633Z,2.30
2019-02-14T23:28:54.807Z,2.40
2019-02-14T23:31:22.453Z,2.20
2019-02-14T23:33:50.445Z,2.20
2019-02-14T23:36:18.079Z,2.30
2019-02-14T23:38:45.992Z,2.20
2019-02-14T23:41:13.651Z,1.90
2019-02-14T23:43:41.873Z,1.80
2019-02-14T23:46:09.808Z,1.80
2019-02-14T23:48:39.102Z,1.70
2019-02-14T23:51:06.720Z,1.80
2019-02-14T23:53:34.310Z,1.70
2019-02-14T23:56:01.983Z,1.40
2019-02-14T23:58:30.531Z,1.10
